Rosaria Lauro — IXXO — position and weather

sailwx.info

Track history (hours):
 
Tides and Currents Weather Stations Pressure Air Temp Water Temp Dewpoint Dewpoint Depression Visibility Wind Speed Wind Dir Waves Ship Positions

Rosaria Lauro

Last reported at 2015-Aug-31 17:05 UTC. Time now 2015-Aug-31 19:55 UTC.
Position N 40°45' E 013°56'.

Length 40 m; draft 1.1 m.

Type: Passenger vessel. MMSI: 247055900.

Date/timePositionNaut miles runAvg speedWind from/ knotsBaromVisibWave heightAir tempDewpointWater temp
2015-Aug-31 17:05N 40°45' E 013°56'815.7
2015-Aug-31 16:33N 40°47' E 014°07'8 7.7
2015-Aug-31 15:31N 40°49' E 014°17'1616.9
2015-Aug-31 14:33N 40°45' E 013°56'16 6.9
2015-Aug-31 12:13N 40°50' E 014°16'1320.1
2015-Aug-31 11:34N 40°46' E 013°60'6 6.2
2015-Aug-31 10:33N 40°44' E 013°52'1010.2
2015-Aug-31 09:34N 40°46' E 014°05'9 9.3
2015-Aug-31 08:33N 40°50' E 014°16'1615.8
2015-Aug-31 07:33N 40°45' E 013°56'0 0.1
2015-Aug-31 06:33N 40°45' E 013°56'1612.5
2015-Aug-31 05:15N 40°50' E 014°17'16 1.5
2015-Aug-30 18:25N 40°45' E 013°56'1616.3
2015-Aug-30 17:26N 40°50' E 014°16'1618.1
2015-Aug-30 16:33N 40°45' E 013°56'1615.9
2015-Aug-30 15:33N 40°50' E 014°16'1111.3
2015-Aug-30 14:34N 40°45' E 014°03'9 8.4
2015-Aug-30 13:31N 40°44' E 013°52'0 0.0
2015-Aug-30 12:30N 40°44' E 013°52'1010.6
2015-Aug-30 11:34N 40°45' E 014°05'10 9.5
2015-Aug-30 10:32N 40°49' E 014°17'1616.3
2015-Aug-30 09:33N 40°45' E 013°56'0 0.0
2015-Aug-30 08:33N 40°45' E 013°56'11 5.5
2015-Aug-30 06:34N 40°47' E 014°11'1110.9
2015-Aug-30 05:33N 40°45' E 013°56'0 0.0
2015-Aug-29 19:34N 40°45' E 013°56'1612.7
2015-Aug-29 18:17N 40°50' E 014°17'1115.4
2015-Aug-29 17:34N 40°45' E 014°03'5 5.3
2015-Aug-29 16:34N 40°45' E 013°56'1413.9
2015-Aug-29 15:33N 40°48' E 014°14'8 8.1
2015-Aug-29 14:34N 40°45' E 014°05'10 8.2
2015-Aug-29 13:21N 40°44' E 013°52'0 0.0
2015-Aug-29 12:26N 40°44' E 013°52'6 7.2
2015-Aug-29 11:34N 40°44' E 013°60'1412.9
2015-Aug-29 10:29N 40°50' E 014°17'1920.4
2015-Aug-29 09:34N 40°46' E 013°52'7 7.3
2015-Aug-29 08:34N 40°44' E 014°02'1211.0
2015-Aug-29 07:25N 40°50' E 014°17'1618.7
2015-Aug-29 06:33N 40°45' E 013°56'0 0.0
2015-Aug-29 05:33N 40°45' E 013°56'0 0.0
2015-Aug-28 19:34N 40°45' E 013°56'1612.1
2015-Aug-28 18:13N 40°50' E 014°17'1015.1
2015-Aug-28 17:33N 40°46' E 014°04'2 2.5
2015-Aug-28 16:34N 40°47' E 014°07'8 6.8
2015-Aug-28 15:25N 40°50' E 014°17'2023.0
2015-Aug-28 14:33N 40°45' E 013°52'4 3.7
2015-Aug-28 13:34N 40°45' E 013°56'1611.3
2015-Aug-28 12:08N 40°50' E 014°16'1221.3
2015-Aug-28 11:34N 40°46' E 014°01'7 7.1
2015-Aug-28 10:33N 40°44' E 013°52'8 7.6
2015-Aug-28 09:33N 40°46' E 014°01'11 5.0
2015-Aug-28 07:19N 40°49' E 014°16'1520.1
2015-Aug-28 06:33N 40°45' E 013°56'0 0.0
2015-Aug-27 19:33N 40°45' E 013°56'1611.6
2015-Aug-27 18:09N 40°49' E 014°17'814.4
2015-Aug-27 17:34N 40°46' E 014°07'8 8.0
2015-Aug-27 16:33N 40°45' E 013°56'2010.0
2015-Aug-27 14:33N 40°41' E 014°22'5 4.6
2015-Aug-27 13:31N 40°45' E 014°19'5 0.9
2015-Aug-27 07:25N 40°50' E 014°17'1618.8
2015-Aug-27 06:33N 40°45' E 013°56'0 0.0
2015-Aug-26 16:33N 40°45' E 013°56'7 3.3
2015-Aug-26 14:34N 40°46' E 014°05'1010.1
2015-Aug-26 13:32N 40°44' E 013°52'0 0.0
2015-Aug-26 12:30N 40°44' E 013°52'1414.9
2015-Aug-26 11:34N 40°47' E 014°10'4 4.0
2015-Aug-26 10:33N 40°48' E 014°15'1514.7
2015-Aug-26 09:34N 40°45' E 013°56'1 0.7
2015-Aug-26 08:33N 40°45' E 013°56'1611.9
2015-Aug-26 07:12N 40°50' E 014°17'2 2.6
2015-Aug-26 06:26N 40°49' E 014°14'7 7.7
2015-Aug-26 05:33N 40°46' E 014°06'1111.1
2015-Aug-26 04:33N 40°44' E 013°52'2 0.2
2015-Aug-25 16:34N 40°46' E 013°53'1916.1
2015-Aug-25 15:24N 40°50' E 014°17'2023.5
2015-Aug-25 14:34N 40°45' E 013°52'4 3.7
2015-Aug-25 13:34N 40°45' E 013°56'14 4.6
2015-Aug-25 10:33N 40°48' E 014°14'1414.5
2015-Aug-25 09:34N 40°45' E 013°55'2 1.7
2015-Aug-25 08:34N 40°45' E 013°58'6 2.1
2015-Aug-25 05:34N 40°46' E 014°06'1111.0
2015-Aug-25 04:33N 40°44' E 013°52'4 0.3
2015-Aug-24 16:33N 40°46' E 013°56'1615.3
2015-Aug-24 15:32N 40°50' E 014°16'2019.5
2015-Aug-24 14:31N 40°44' E 013°52'4 3.8
2015-Aug-24 13:33N 40°45' E 013°56'1511.5
2015-Aug-24 12:13N 40°50' E 014°15'0 0.0
2015-Aug-24 11:32N 40°50' E 014°15'1 1.5
2015-Aug-24 10:33N 40°49' E 014°17'1616.4
2015-Aug-24 09:33N 40°45' E 013°56'0 0.0
2015-Aug-24 08:33N 40°45' E 013°56'6 5.6
2015-Aug-24 07:34N 40°46' E 014°03'5 0.4
2015-Aug-23 19:33N 40°45' E 013°57'1614.8
2015-Aug-23 18:30N 40°49' E 014°17'2020.9
2015-Aug-23 17:34N 40°45' E 013°52'1312.6
2015-Aug-23 16:33N 40°46' E 014°08'2 2.3
2015-Aug-23 15:33N 40°47' E 014°11'1515.0
2015-Aug-23 14:33N 40°44' E 013°52'8 8.0
2015-Aug-23 13:33N 40°45' E 014°02'12 9.4
2015-Aug-23 12:15N 40°49' E 014°17'1521.3
2015-Aug-23 11:33N 40°44' E 013°59'5 5.3
2015-Aug-23 10:33N 40°44' E 013°52'1614.4
2015-Aug-23 09:29N 40°47' E 014°12'4 3.8
2015-Aug-23 08:32N 40°49' E 014°16'1515.7
2015-Aug-23 07:33N 40°45' E 013°56'0 0.1
2015-Aug-23 06:33N 40°45' E 013°56'1612.6
2015-Aug-23 05:18N 40°50' E 014°16'1621.5
2015-Aug-23 04:33N 40°45' E 013°56'4 3.7
2015-Aug-23 03:33N 40°44' E 013°52'0 0.0
2015-Aug-22 19:33N 40°44' E 013°52'1111.4
2015-Aug-22 18:34N 40°46' E 014°06'3 3.2
2015-Aug-22 17:34N 40°47' E 014°10'1414.3
2015-Aug-22 16:34N 40°46' E 013°52'9 4.6
2015-Aug-22 14:33N 40°45' E 014°04'9 9.0
2015-Aug-22 13:32N 40°44' E 013°52'9 4.5
2015-Aug-22 11:34N 40°45' E 014°03'1111.0
2015-Aug-22 10:32N 40°49' E 014°17'1616.7
2015-Aug-22 09:33N 40°45' E 013°56'0 0.0
2015-Aug-22 08:33N 40°45' E 013°56'8 2.7
2015-Aug-22 05:34N 40°46' E 014°07'1211.7
2015-Aug-22 04:33N 40°44' E 013°52'0 0.0
2015-Aug-22 03:33N 40°44' E 013°52'0 0.0
2015-Aug-21 19:05N 40°44' E 013°52'1020.0
2015-Aug-21 18:34N 40°46' E 014°05'6 5.9
2015-Aug-21 17:33N 40°47' E 014°13'  
Track history (hours):
 
Tides and Currents Weather Stations Pressure Air Temp Water Temp Dewpoint Dewpoint Depression Visibility Wind Speed Wind Dir Waves Ship Positions

Rosaria Lauro

Last reported at 2015-Aug-31 17:05 UTC. Time now 2015-Aug-31 19:55 UTC.
Position N 40°45' E 013°56'.

Length 40 m; draft 1.1 m.

Type: Passenger vessel. MMSI: 247055900.

Date/timePositionNaut miles runAvg speedWind from/ knotsBaromVisibWave heightAir tempDewpointWater temp
2015-Aug-31 17:05N 40°45' E 013°56'815.7
2015-Aug-31 16:33N 40°47' E 014°07'8 7.7
2015-Aug-31 15:31N 40°49' E 014°17'1616.9
2015-Aug-31 14:33N 40°45' E 013°56'16 6.9
2015-Aug-31 12:13N 40°50' E 014°16'1320.1
2015-Aug-31 11:34N 40°46' E 013°60'6 6.2
2015-Aug-31 10:33N 40°44' E 013°52'1010.2
2015-Aug-31 09:34N 40°46' E 014°05'9 9.3
2015-Aug-31 08:33N 40°50' E 014°16'1615.8
2015-Aug-31 07:33N 40°45' E 013°56'0 0.1
2015-Aug-31 06:33N 40°45' E 013°56'1612.5
2015-Aug-31 05:15N 40°50' E 014°17'16 1.5
2015-Aug-30 18:25N 40°45' E 013°56'1616.3
2015-Aug-30 17:26N 40°50' E 014°16'1618.1
2015-Aug-30 16:33N 40°45' E 013°56'1615.9
2015-Aug-30 15:33N 40°50' E 014°16'1111.3
2015-Aug-30 14:34N 40°45' E 014°03'9 8.4
2015-Aug-30 13:31N 40°44' E 013°52'0 0.0
2015-Aug-30 12:30N 40°44' E 013°52'1010.6
2015-Aug-30 11:34N 40°45' E 014°05'10 9.5
2015-Aug-30 10:32N 40°49' E 014°17'1616.3
2015-Aug-30 09:33N 40°45' E 013°56'0 0.0
2015-Aug-30 08:33N 40°45' E 013°56'11 5.5
2015-Aug-30 06:34N 40°47' E 014°11'1110.9
2015-Aug-30 05:33N 40°45' E 013°56'0 0.0
2015-Aug-29 19:34N 40°45' E 013°56'1612.7
2015-Aug-29 18:17N 40°50' E 014°17'1115.4
2015-Aug-29 17:34N 40°45' E 014°03'5 5.3
2015-Aug-29 16:34N 40°45' E 013°56'1413.9
2015-Aug-29 15:33N 40°48' E 014°14'8 8.1
2015-Aug-29 14:34N 40°45' E 014°05'10 8.2
2015-Aug-29 13:21N 40°44' E 013°52'0 0.0
2015-Aug-29 12:26N 40°44' E 013°52'6 7.2
2015-Aug-29 11:34N 40°44' E 013°60'1412.9
2015-Aug-29 10:29N 40°50' E 014°17'1920.4
2015-Aug-29 09:34N 40°46' E 013°52'7 7.3
2015-Aug-29 08:34N 40°44' E 014°02'1211.0
2015-Aug-29 07:25N 40°50' E 014°17'1618.7
2015-Aug-29 06:33N 40°45' E 013°56'0 0.0
2015-Aug-29 05:33N 40°45' E 013°56'0 0.0
2015-Aug-28 19:34N 40°45' E 013°56'1612.1
2015-Aug-28 18:13N 40°50' E 014°17'1015.1
2015-Aug-28 17:33N 40°46' E 014°04'2 2.5
2015-Aug-28 16:34N 40°47' E 014°07'8 6.8
2015-Aug-28 15:25N 40°50' E 014°17'2023.0
2015-Aug-28 14:33N 40°45' E 013°52'4 3.7
2015-Aug-28 13:34N 40°45' E 013°56'1611.3
2015-Aug-28 12:08N 40°50' E 014°16'1221.3
2015-Aug-28 11:34N 40°46' E 014°01'7 7.1
2015-Aug-28 10:33N 40°44' E 013°52'8 7.6
2015-Aug-28 09:33N 40°46' E 014°01'11 5.0
2015-Aug-28 07:19N 40°49' E 014°16'1520.1
2015-Aug-28 06:33N 40°45' E 013°56'0 0.0
2015-Aug-27 19:33N 40°45' E 013°56'1611.6
2015-Aug-27 18:09N 40°49' E 014°17'814.4
2015-Aug-27 17:34N 40°46' E 014°07'8 8.0
2015-Aug-27 16:33N 40°45' E 013°56'2010.0
2015-Aug-27 14:33N 40°41' E 014°22'5 4.6
2015-Aug-27 13:31N 40°45' E 014°19'5 0.9
2015-Aug-27 07:25N 40°50' E 014°17'1618.8
2015-Aug-27 06:33N 40°45' E 013°56'0 0.0
2015-Aug-26 16:33N 40°45' E 013°56'7 3.3
2015-Aug-26 14:34N 40°46' E 014°05'1010.1
2015-Aug-26 13:32N 40°44' E 013°52'0 0.0
2015-Aug-26 12:30N 40°44' E 013°52'1414.9
2015-Aug-26 11:34N 40°47' E 014°10'4 4.0
2015-Aug-26 10:33N 40°48' E 014°15'1514.7
2015-Aug-26 09:34N 40°45' E 013°56'1 0.7
2015-Aug-26 08:33N 40°45' E 013°56'1611.9
2015-Aug-26 07:12N 40°50' E 014°17'2 2.6
2015-Aug-26 06:26N 40°49' E 014°14'7 7.7
2015-Aug-26 05:33N 40°46' E 014°06'1111.1
2015-Aug-26 04:33N 40°44' E 013°52'2 0.2
2015-Aug-25 16:34N 40°46' E 013°53'1916.1
2015-Aug-25 15:24N 40°50' E 014°17'2023.5
2015-Aug-25 14:34N 40°45' E 013°52'4 3.7
2015-Aug-25 13:34N 40°45' E 013°56'14 4.6
2015-Aug-25 10:33N 40°48' E 014°14'1414.5
2015-Aug-25 09:34N 40°45' E 013°55'2 1.7
2015-Aug-25 08:34N 40°45' E 013°58'6 2.1
2015-Aug-25 05:34N 40°46' E 014°06'1111.0
2015-Aug-25 04:33N 40°44' E 013°52'4 0.3
2015-Aug-24 16:33N 40°46' E 013°56'1615.3
2015-Aug-24 15:32N 40°50' E 014°16'2019.5
2015-Aug-24 14:31N 40°44' E 013°52'4 3.8
2015-Aug-24 13:33N 40°45' E 013°56'1511.5
2015-Aug-24 12:13N 40°50' E 014°15'0 0.0
2015-Aug-24 11:32N 40°50' E 014°15'1 1.5
2015-Aug-24 10:33N 40°49' E 014°17'1616.4
2015-Aug-24 09:33N 40°45' E 013°56'0 0.0
2015-Aug-24 08:33N 40°45' E 013°56'6 5.6
2015-Aug-24 07:34N 40°46' E 014°03'5 0.4
2015-Aug-23 19:33N 40°45' E 013°57'1614.8
2015-Aug-23 18:30N 40°49' E 014°17'2020.9
2015-Aug-23 17:34N 40°45' E 013°52'1312.6
2015-Aug-23 16:33N 40°46' E 014°08'2 2.3
2015-Aug-23 15:33N 40°47' E 014°11'1515.0
2015-Aug-23 14:33N 40°44' E 013°52'8 8.0
2015-Aug-23 13:33N 40°45' E 014°02'12 9.4
2015-Aug-23 12:15N 40°49' E 014°17'1521.3
2015-Aug-23 11:33N 40°44' E 013°59'5 5.3
2015-Aug-23 10:33N 40°44' E 013°52'1614.4
2015-Aug-23 09:29N 40°47' E 014°12'4 3.8
2015-Aug-23 08:32N 40°49' E 014°16'1515.7
2015-Aug-23 07:33N 40°45' E 013°56'0 0.1
2015-Aug-23 06:33N 40°45' E 013°56'1612.6
2015-Aug-23 05:18N 40°50' E 014°16'1621.5
2015-Aug-23 04:33N 40°45' E 013°56'4 3.7
2015-Aug-23 03:33N 40°44' E 013°52'0 0.0
2015-Aug-22 19:33N 40°44' E 013°52'1111.4
2015-Aug-22 18:34N 40°46' E 014°06'3 3.2
2015-Aug-22 17:34N 40°47' E 014°10'1414.3
2015-Aug-22 16:34N 40°46' E 013°52'9 4.6
2015-Aug-22 14:33N 40°45' E 014°04'9 9.0
2015-Aug-22 13:32N 40°44' E 013°52'9 4.5
2015-Aug-22 11:34N 40°45' E 014°03'1111.0
2015-Aug-22 10:32N 40°49' E 014°17'1616.7
2015-Aug-22 09:33N 40°45' E 013°56'0 0.0
2015-Aug-22 08:33N 40°45' E 013°56'8 2.7
2015-Aug-22 05:34N 40°46' E 014°07'1211.7
2015-Aug-22 04:33N 40°44' E 013°52'0 0.0
2015-Aug-22 03:33N 40°44' E 013°52'0 0.0
2015-Aug-21 19:05N 40°44' E 013°52'1020.0
2015-Aug-21 18:34N 40°46' E 014°05'6 5.9
2015-Aug-21 17:33N 40°47' E 014°13'  

Dump ship's entire track history